sensor_id;sensor_type;location;lat;lon;timestamp;P1;durP1;ratioP1;P2;durP2;ratioP2
18887;SDS011;9576;47.792;9.628;2023-05-17T00:02:42;6.90;;;2.17;;
18887;SDS011;9576;47.792;9.628;2023-05-17T00:05:44;5.80;;;1.60;;
18887;SDS011;9576;47.792;9.628;2023-05-17T00:08:46;5.97;;;2.00;;
18887;SDS011;9576;47.792;9.628;2023-05-17T00:11:48;5.78;;;1.95;;
18887;SDS011;9576;47.792;9.628;2023-05-17T00:14:50;13.98;;;1.90;;
18887;SDS011;9576;47.792;9.628;2023-05-17T00:17:53;12.43;;;2.05;;
18887;SDS011;9576;47.792;9.628;2023-05-17T00:20:56;11.38;;;1.90;;
18887;SDS011;9576;47.792;9.628;2023-05-17T00:23:58;3.72;;;1.70;;
18887;SDS011;9576;47.792;9.628;2023-05-17T00:27:00;17.65;;;2.03;;
18887;SDS011;9576;47.792;9.628;2023-05-17T00:30:02;12.60;;;2.10;;
18887;SDS011;9576;47.792;9.628;2023-05-17T00:33:06;6.53;;;1.30;;
18887;SDS011;9576;47.792;9.628;2023-05-17T00:36:08;4.95;;;1.50;;
18887;SDS011;9576;47.792;9.628;2023-05-17T00:39:10;6.13;;;1.92;;
18887;SDS011;9576;47.792;9.628;2023-05-17T00:42:12;6.72;;;2.15;;
18887;SDS011;9576;47.792;9.628;2023-05-17T00:45:14;5.40;;;1.70;;
18887;SDS011;9576;47.792;9.628;2023-05-17T00:48:17;7.40;;;1.60;;
18887;SDS011;9576;47.792;9.628;2023-05-17T00:51:20;5.03;;;1.70;;
18887;SDS011;9576;47.792;9.628;2023-05-17T00:54:22;8.05;;;1.63;;
18887;SDS011;9576;47.792;9.628;2023-05-17T00:57:25;3.85;;;1.52;;
18887;SDS011;9576;47.792;9.628;2023-05-17T01:00:28;11.32;;;2.13;;
18887;SDS011;9576;47.792;9.628;2023-05-17T01:03:32;6.60;;;1.55;;
18887;SDS011;9576;47.792;9.628;2023-05-17T01:06:34;7.93;;;1.35;;
18887;SDS011;9576;47.792;9.628;2023-05-17T01:09:36;3.30;;;1.42;;
18887;SDS011;9576;47.792;9.628;2023-05-17T01:12:43;5.32;;;1.83;;
18887;SDS011;9576;47.792;9.628;2023-05-17T01:15:52;13.63;;;1.60;;
18887;SDS011;9576;47.792;9.628;2023-05-17T01:19:06;5.65;;;1.63;;
18887;SDS011;9576;47.792;9.628;2023-05-17T01:22:14;3.17;;;1.25;;
18887;SDS011;9576;47.792;9.628;2023-05-17T01:25:28;6.88;;;1.27;;
18887;SDS011;9576;47.792;9.628;2023-05-17T01:28:40;3.70;;;1.77;;
18887;SDS011;9576;47.792;9.628;2023-05-17T01:31:44;4.80;;;1.48;;
18887;SDS011;9576;47.792;9.628;2023-05-17T01:34:46;7.30;;;1.98;;
18887;SDS011;9576;47.792;9.628;2023-05-17T01:37:48;13.57;;;1.38;;
18887;SDS011;9576;47.792;9.628;2023-05-17T01:40:51;6.57;;;1.35;;
18887;SDS011;9576;47.792;9.628;2023-05-17T01:44:01;3.60;;;1.30;;
18887;SDS011;9576;47.792;9.628;2023-05-17T01:47:11;6.80;;;1.85;;
18887;SDS011;9576;47.792;9.628;2023-05-17T01:50:17;7.57;;;1.52;;
18887;SDS011;9576;47.792;9.628;2023-05-17T01:53:24;2.15;;;1.35;;
18887;SDS011;9576;47.792;9.628;2023-05-17T01:56:32;10.32;;;2.38;;
18887;SDS011;9576;47.792;9.628;2023-05-17T01:59:37;9.60;;;2.22;;
18887;SDS011;9576;47.792;9.628;2023-05-17T02:05:42;5.20;;;2.25;;
18887;SDS011;9576;47.792;9.628;2023-05-17T02:08:44;6.18;;;1.33;;
18887;SDS011;9576;47.792;9.628;2023-05-17T02:11:47;3.03;;;1.42;;
18887;SDS011;9576;47.792;9.628;2023-05-17T02:14:50;5.95;;;1.92;;
18887;SDS011;9576;47.792;9.628;2023-05-17T02:17:52;6.38;;;1.90;;
18887;SDS011;9576;47.792;9.628;2023-05-17T02:20:54;8.35;;;1.77;;
18887;SDS011;9576;47.792;9.628;2023-05-17T02:23:56;6.13;;;1.75;;
18887;SDS011;9576;47.792;9.628;2023-05-17T02:26:58;2.50;;;1.05;;
18887;SDS011;9576;47.792;9.628;2023-05-17T02:30:02;5.40;;;1.33;;
18887;SDS011;9576;47.792;9.628;2023-05-17T02:33:05;7.07;;;2.03;;
18887;SDS011;9576;47.792;9.628;2023-05-17T02:36:07;4.95;;;2.67;;
18887;SDS011;9576;47.792;9.628;2023-05-17T02:39:10;9.48;;;1.77;;
18887;SDS011;9576;47.792;9.628;2023-05-17T02:42:13;9.07;;;1.80;;
18887;SDS011;9576;47.792;9.628;2023-05-17T02:45:16;10.27;;;1.52;;
18887;SDS011;9576;47.792;9.628;2023-05-17T02:48:18;6.55;;;2.10;;
18887;SDS011;9576;47.792;9.628;2023-05-17T02:51:20;5.20;;;1.80;;
18887;SDS011;9576;47.792;9.628;2023-05-17T02:54:22;5.20;;;1.77;;
18887;SDS011;9576;47.792;9.628;2023-05-17T02:57:24;10.82;;;1.80;;
18887;SDS011;9576;47.792;9.628;2023-05-17T03:00:27;9.35;;;1.67;;
18887;SDS011;9576;47.792;9.628;2023-05-17T03:03:29;18.33;;;2.80;;
18887;SDS011;9576;47.792;9.628;2023-05-17T03:06:31;4.18;;;1.42;;
18887;SDS011;9576;47.792;9.628;2023-05-17T03:09:33;10.07;;;1.55;;
18887;SDS011;9576;47.792;9.628;2023-05-17T03:12:36;5.03;;;1.92;;
18887;SDS011;9576;47.792;9.628;2023-05-17T03:15:39;10.25;;;2.03;;
18887;SDS011;9576;47.792;9.628;2023-05-17T03:18:41;6.10;;;1.83;;
18887;SDS011;9576;47.792;9.628;2023-05-17T03:21:43;4.40;;;1.58;;
18887;SDS011;9576;47.792;9.628;2023-05-17T03:24:45;12.63;;;2.33;;
18887;SDS011;9576;47.792;9.628;2023-05-17T03:27:47;12.82;;;1.70;;
18887;SDS011;9576;47.792;9.628;2023-05-17T03:30:50;4.88;;;1.40;;
18887;SDS011;9576;47.792;9.628;2023-05-17T03:33:52;5.28;;;1.42;;
18887;SDS011;9576;47.792;9.628;2023-05-17T03:36:54;4.50;;;1.75;;
18887;SDS011;9576;47.792;9.628;2023-05-17T03:39:56;3.45;;;1.30;;
18887;SDS011;9576;47.792;9.628;2023-05-17T03:42:58;3.63;;;1.40;;
18887;SDS011;9576;47.792;9.628;2023-05-17T03:46:02;6.85;;;1.48;;
18887;SDS011;9576;47.792;9.628;2023-05-17T03:49:03;16.08;;;1.52;;
18887;SDS011;9576;47.792;9.628;2023-05-17T03:52:05;5.30;;;1.50;;
18887;SDS011;9576;47.792;9.628;2023-05-17T03:55:08;6.78;;;1.70;;
18887;SDS011;9576;47.792;9.628;2023-05-17T03:58:10;8.23;;;1.88;;
18887;SDS011;9576;47.792;9.628;2023-05-17T04:01:13;5.95;;;1.75;;
18887;SDS011;9576;47.792;9.628;2023-05-17T04:04:15;9.45;;;1.58;;
18887;SDS011;9576;47.792;9.628;2023-05-17T04:07:17;19.05;;;3.05;;
18887;SDS011;9576;47.792;9.628;2023-05-17T04:10:19;2.25;;;0.88;;
18887;SDS011;9576;47.792;9.628;2023-05-17T04:13:21;7.57;;;1.40;;
18887;SDS011;9576;47.792;9.628;2023-05-17T04:16:24;12.15;;;2.20;;
18887;SDS011;9576;47.792;9.628;2023-05-17T04:19:26;12.10;;;1.90;;
18887;SDS011;9576;47.792;9.628;2023-05-17T04:22:28;9.10;;;1.83;;
18887;SDS011;9576;47.792;9.628;2023-05-17T04:25:30;8.13;;;1.63;;
18887;SDS011;9576;47.792;9.628;2023-05-17T04:28:32;7.97;;;1.00;;
18887;SDS011;9576;47.792;9.628;2023-05-17T04:31:36;14.15;;;2.08;;
18887;SDS011;9576;47.792;9.628;2023-05-17T04:34:38;10.73;;;2.60;;
18887;SDS011;9576;47.792;9.628;2023-05-17T04:37:40;10.52;;;1.83;;
18887;SDS011;9576;47.792;9.628;2023-05-17T04:40:42;6.43;;;1.35;;
18887;SDS011;9576;47.792;9.628;2023-05-17T04:43:43;5.07;;;1.20;;
18887;SDS011;9576;47.792;9.628;2023-05-17T04:46:47;2.92;;;0.98;;
18887;SDS011;9576;47.792;9.628;2023-05-17T04:49:49;14.38;;;1.80;;
18887;SDS011;9576;47.792;9.628;2023-05-17T04:52:51;8.70;;;1.77;;
18887;SDS011;9576;47.792;9.628;2023-05-17T04:55:53;3.35;;;0.93;;
18887;SDS011;9576;47.792;9.628;2023-05-17T04:58:55;3.80;;;0.98;;
18887;SDS011;9576;47.792;9.628;2023-05-17T05:01:58;4.80;;;1.65;;
18887;SDS011;9576;47.792;9.628;2023-05-17T05:05:00;6.38;;;1.33;;
18887;SDS011;9576;47.792;9.628;2023-05-17T05:08:02;7.10;;;1.70;;
18887;SDS011;9576;47.792;9.628;2023-05-17T05:11:04;5.82;;;1.67;;
18887;SDS011;9576;47.792;9.628;2023-05-17T05:14:06;13.05;;;1.33;;
18887;SDS011;9576;47.792;9.628;2023-05-17T05:17:10;7.03;;;1.42;;
18887;SDS011;9576;47.792;9.628;2023-05-17T05:20:12;4.82;;;1.45;;
18887;SDS011;9576;47.792;9.628;2023-05-17T05:23:14;8.98;;;2.35;;
18887;SDS011;9576;47.792;9.628;2023-05-17T05:26:17;4.38;;;1.40;;
18887;SDS011;9576;47.792;9.628;2023-05-17T05:29:19;7.78;;;1.98;;
18887;SDS011;9576;47.792;9.628;2023-05-17T05:32:22;4.32;;;1.67;;
18887;SDS011;9576;47.792;9.628;2023-05-17T05:35:24;5.10;;;1.45;;
18887;SDS011;9576;47.792;9.628;2023-05-17T05:38:29;2.17;;;1.23;;
18887;SDS011;9576;47.792;9.628;2023-05-17T05:41:30;9.85;;;2.10;;
18887;SDS011;9576;47.792;9.628;2023-05-17T05:44:32;2.30;;;1.30;;
18887;SDS011;9576;47.792;9.628;2023-05-17T05:47:36;11.40;;;1.65;;
18887;SDS011;9576;47.792;9.628;2023-05-17T05:50:38;6.30;;;1.80;;
18887;SDS011;9576;47.792;9.628;2023-05-17T05:53:41;3.03;;;1.30;;
18887;SDS011;9576;47.792;9.628;2023-05-17T05:56:43;4.97;;;1.45;;
18887;SDS011;9576;47.792;9.628;2023-05-17T05:59:45;14.68;;;1.77;;
18887;SDS011;9576;47.792;9.628;2023-05-17T06:02:49;1.95;;;1.40;;
18887;SDS011;9576;47.792;9.628;2023-05-17T06:08:54;3.58;;;1.95;;
18887;SDS011;9576;47.792;9.628;2023-05-17T06:11:56;8.70;;;2.17;;
18887;SDS011;9576;47.792;9.628;2023-05-17T06:14:58;15.20;;;2.10;;
18887;SDS011;9576;47.792;9.628;2023-05-17T06:18:01;7.97;;;2.15;;
18887;SDS011;9576;47.792;9.628;2023-05-17T06:21:03;2.38;;;1.20;;
18887;SDS011;9576;47.792;9.628;2023-05-17T06:24:05;10.60;;;1.58;;
18887;SDS011;9576;47.792;9.628;2023-05-17T06:27:08;8.32;;;1.88;;
18887;SDS011;9576;47.792;9.628;2023-05-17T06:30:10;6.55;;;1.27;;
18887;SDS011;9576;47.792;9.628;2023-05-17T06:33:14;6.88;;;1.80;;
18887;SDS011;9576;47.792;9.628;2023-05-17T06:36:16;2.03;;;1.20;;
18887;SDS011;9576;47.792;9.628;2023-05-17T06:39:18;8.20;;;1.65;;
18887;SDS011;9576;47.792;9.628;2023-05-17T06:42:20;4.85;;;1.58;;
18887;SDS011;9576;47.792;9.628;2023-05-17T06:45:22;4.85;;;1.77;;
18887;SDS011;9576;47.792;9.628;2023-05-17T06:48:27;5.32;;;2.22;;
18887;SDS011;9576;47.792;9.628;2023-05-17T06:51:29;5.18;;;1.60;;
18887;SDS011;9576;47.792;9.628;2023-05-17T06:54:31;6.68;;;1.63;;
18887;SDS011;9576;47.792;9.628;2023-05-17T06:57:33;10.52;;;2.03;;
18887;SDS011;9576;47.792;9.628;2023-05-17T07:00:35;5.18;;;1.25;;
18887;SDS011;9576;47.792;9.628;2023-05-17T07:03:38;14.63;;;1.92;;
18887;SDS011;9576;47.792;9.628;2023-05-17T07:06:40;4.80;;;1.35;;
18887;SDS011;9576;47.792;9.628;2023-05-17T07:09:42;3.10;;;1.20;;
18887;SDS011;9576;47.792;9.628;2023-05-17T07:12:44;8.77;;;1.85;;
18887;SDS011;9576;47.792;9.628;2023-05-17T07:15:46;12.70;;;2.28;;
18887;SDS011;9576;47.792;9.628;2023-05-17T07:18:49;6.68;;;1.42;;
18887;SDS011;9576;47.792;9.628;2023-05-17T07:21:51;6.03;;;1.60;;
18887;SDS011;9576;47.792;9.628;2023-05-17T07:24:53;4.35;;;1.40;;
18887;SDS011;9576;47.792;9.628;2023-05-17T07:27:55;2.80;;;1.45;;
18887;SDS011;9576;47.792;9.628;2023-05-17T07:30:57;5.38;;;1.60;;
18887;SDS011;9576;47.792;9.628;2023-05-17T07:34:00;7.72;;;1.40;;
18887;SDS011;9576;47.792;9.628;2023-05-17T07:37:02;7.60;;;1.75;;
18887;SDS011;9576;47.792;9.628;2023-05-17T07:40:05;7.45;;;1.58;;
18887;SDS011;9576;47.792;9.628;2023-05-17T07:43:08;11.70;;;1.13;;
18887;SDS011;9576;47.792;9.628;2023-05-17T07:46:10;6.90;;;1.95;;
18887;SDS011;9576;47.792;9.628;2023-05-17T07:49:13;9.15;;;1.60;;
18887;SDS011;9576;47.792;9.628;2023-05-17T07:52:15;4.85;;;1.50;;
18887;SDS011;9576;47.792;9.628;2023-05-17T07:55:17;9.68;;;1.83;;
18887;SDS011;9576;47.792;9.628;2023-05-17T07:58:20;10.52;;;1.70;;
18887;SDS011;9576;47.792;9.628;2023-05-17T08:01:22;9.43;;;1.40;;
18887;SDS011;9576;47.792;9.628;2023-05-17T08:04:25;15.85;;;1.58;;
18887;SDS011;9576;47.792;9.628;2023-05-17T08:07:27;6.55;;;1.63;;
18887;SDS011;9576;47.792;9.628;2023-05-17T08:10:29;10.13;;;1.73;;
18887;SDS011;9576;47.792;9.628;2023-05-17T08:13:31;4.45;;;1.25;;
18887;SDS011;9576;47.792;9.628;2023-05-17T08:16:33;9.88;;;2.30;;
18887;SDS011;9576;47.792;9.628;2023-05-17T08:19:37;3.92;;;1.45;;
18887;SDS011;9576;47.792;9.628;2023-05-17T08:22:39;7.60;;;1.60;;
18887;SDS011;9576;47.792;9.628;2023-05-17T08:25:41;16.90;;;5.85;;
18887;SDS011;9576;47.792;9.628;2023-05-17T08:28:43;8.88;;;1.73;;
18887;SDS011;9576;47.792;9.628;2023-05-17T08:31:45;4.75;;;1.15;;
18887;SDS011;9576;47.792;9.628;2023-05-17T08:34:48;3.08;;;1.13;;
18887;SDS011;9576;47.792;9.628;2023-05-17T08:37:50;10.05;;;1.42;;
18887;SDS011;9576;47.792;9.628;2023-05-17T08:40:52;6.32;;;1.98;;
18887;SDS011;9576;47.792;9.628;2023-05-17T08:43:55;15.07;;;1.88;;
18887;SDS011;9576;47.792;9.628;2023-05-17T08:46:58;2.97;;;1.35;;
18887;SDS011;9576;47.792;9.628;2023-05-17T08:50:02;8.60;;;1.40;;
18887;SDS011;9576;47.792;9.628;2023-05-17T08:53:06;3.90;;;1.25;;
18887;SDS011;9576;47.792;9.628;2023-05-17T08:56:09;5.28;;;1.30;;
18887;SDS011;9576;47.792;9.628;2023-05-17T08:59:12;7.80;;;1.73;;
18887;SDS011;9576;47.792;9.628;2023-05-17T09:02:14;4.43;;;1.27;;
18887;SDS011;9576;47.792;9.628;2023-05-17T09:05:18;2.90;;;1.10;;
18887;SDS011;9576;47.792;9.628;2023-05-17T09:08:20;3.38;;;1.40;;
18887;SDS011;9576;47.792;9.628;2023-05-17T09:11:23;5.25;;;1.45;;
18887;SDS011;9576;47.792;9.628;2023-05-17T09:14:31;8.07;;;1.40;;
18887;SDS011;9576;47.792;9.628;2023-05-17T09:17:34;2.78;;;1.13;;
18887;SDS011;9576;47.792;9.628;2023-05-17T09:20:37;10.90;;;1.40;;
18887;SDS011;9576;47.792;9.628;2023-05-17T09:23:40;2.70;;;1.48;;
18887;SDS011;9576;47.792;9.628;2023-05-17T09:26:42;4.68;;;1.35;;
18887;SDS011;9576;47.792;9.628;2023-05-17T09:29:45;7.95;;;1.60;;
18887;SDS011;9576;47.792;9.628;2023-05-17T09:32:48;3.38;;;1.45;;
18887;SDS011;9576;47.792;9.628;2023-05-17T09:35:54;6.45;;;1.65;;
18887;SDS011;9576;47.792;9.628;2023-05-17T09:38:56;10.43;;;1.63;;
18887;SDS011;9576;47.792;9.628;2023-05-17T09:42:00;6.43;;;1.50;;
18887;SDS011;9576;47.792;9.628;2023-05-17T09:45:02;5.00;;;1.40;;
18887;SDS011;9576;47.792;9.628;2023-05-17T09:48:12;16.10;;;1.42;;
18887;SDS011;9576;47.792;9.628;2023-05-17T09:51:16;6.22;;;1.45;;
18887;SDS011;9576;47.792;9.628;2023-05-17T09:54:18;14.27;;;1.77;;
18887;SDS011;9576;47.792;9.628;2023-05-17T09:57:20;6.45;;;1.95;;
18887;SDS011;9576;47.792;9.628;2023-05-17T10:00:22;6.63;;;1.65;;
18887;SDS011;9576;47.792;9.628;2023-05-17T10:03:25;2.92;;;1.45;;
18887;SDS011;9576;47.792;9.628;2023-05-17T10:06:31;4.88;;;1.40;;
18887;SDS011;9576;47.792;9.628;2023-05-17T10:09:34;5.18;;;1.80;;
18887;SDS011;9576;47.792;9.628;2023-05-17T10:12:37;3.72;;;1.58;;
18887;SDS011;9576;47.792;9.628;2023-05-17T10:15:41;7.80;;;1.75;;
18887;SDS011;9576;47.792;9.628;2023-05-17T10:18:43;12.88;;;1.70;;
18887;SDS011;9576;47.792;9.628;2023-05-17T10:21:47;7.13;;;1.85;;
18887;SDS011;9576;47.792;9.628;2023-05-17T10:24:51;5.60;;;1.73;;
18887;SDS011;9576;47.792;9.628;2023-05-17T10:27:52;6.72;;;1.40;;
18887;SDS011;9576;47.792;9.628;2023-05-17T10:30:55;6.68;;;1.23;;
18887;SDS011;9576;47.792;9.628;2023-05-17T10:33:59;7.77;;;2.33;;
18887;SDS011;9576;47.792;9.628;2023-05-17T10:37:03;5.38;;;1.30;;
18887;SDS011;9576;47.792;9.628;2023-05-17T10:40:06;11.38;;;2.22;;
18887;SDS011;9576;47.792;9.628;2023-05-17T10:43:12;5.22;;;1.73;;
18887;SDS011;9576;47.792;9.628;2023-05-17T10:46:16;11.90;;;2.15;;
18887;SDS011;9576;47.792;9.628;2023-05-17T10:49:22;9.15;;;2.60;;
18887;SDS011;9576;47.792;9.628;2023-05-17T10:52:27;7.07;;;1.30;;
18887;SDS011;9576;47.792;9.628;2023-05-17T10:55:35;2.55;;;1.20;;
18887;SDS011;9576;47.792;9.628;2023-05-17T10:58:39;7.13;;;2.10;;
18887;SDS011;9576;47.792;9.628;2023-05-17T11:01:48;8.43;;;1.85;;
18887;SDS011;9576;47.792;9.628;2023-05-17T11:04:52;3.55;;;1.38;;
18887;SDS011;9576;47.792;9.628;2023-05-17T11:11:15;8.55;;;2.85;;
18887;SDS011;9576;47.792;9.628;2023-05-17T11:14:18;6.10;;;2.03;;
18887;SDS011;9576;47.792;9.628;2023-05-17T11:17:22;7.40;;;2.58;;
18887;SDS011;9576;47.792;9.628;2023-05-17T11:20:31;7.75;;;1.67;;
18887;SDS011;9576;47.792;9.628;2023-05-17T11:23:36;8.65;;;2.13;;
18887;SDS011;9576;47.792;9.628;2023-05-17T11:26:39;5.57;;;2.23;;
18887;SDS011;9576;47.792;9.628;2023-05-17T11:29:45;6.38;;;1.92;;
18887;SDS011;9576;47.792;9.628;2023-05-17T11:32:48;8.45;;;2.20;;
18887;SDS011;9576;47.792;9.628;2023-05-17T11:35:52;8.38;;;1.60;;
18887;SDS011;9576;47.792;9.628;2023-05-17T11:39:12;9.65;;;2.03;;
18887;SDS011;9576;47.792;9.628;2023-05-17T11:42:22;8.63;;;1.45;;
18887;SDS011;9576;47.792;9.628;2023-05-17T11:45:25;8.23;;;1.45;;
18887;SDS011;9576;47.792;9.628;2023-05-17T11:48:28;3.30;;;1.27;;
18887;SDS011;9576;47.792;9.628;2023-05-17T11:51:31;6.47;;;1.67;;
18887;SDS011;9576;47.792;9.628;2023-05-17T11:54:36;5.82;;;1.77;;
18887;SDS011;9576;47.792;9.628;2023-05-17T11:57:38;11.80;;;1.70;;
18887;SDS011;9576;47.792;9.628;2023-05-17T12:00:41;2.58;;;1.30;;
18887;SDS011;9576;47.792;9.628;2023-05-17T12:03:44;6.63;;;1.48;;
18887;SDS011;9576;47.792;9.628;2023-05-17T12:06:46;3.30;;;1.08;;
18887;SDS011;9576;47.792;9.628;2023-05-17T12:09:50;4.28;;;1.13;;
18887;SDS011;9576;47.792;9.628;2023-05-17T12:12:52;2.37;;;1.33;;
18887;SDS011;9576;47.792;9.628;2023-05-17T12:15:56;8.85;;;1.77;;
18887;SDS011;9576;47.792;9.628;2023-05-17T12:18:59;5.32;;;1.60;;
18887;SDS011;9576;47.792;9.628;2023-05-17T12:22:04;12.57;;;2.33;;
18887;SDS011;9576;47.792;9.628;2023-05-17T12:25:18;7.43;;;1.90;;
18887;SDS011;9576;47.792;9.628;2023-05-17T12:28:24;7.28;;;1.40;;
18887;SDS011;9576;47.792;9.628;2023-05-17T12:31:26;7.20;;;1.65;;
18887;SDS011;9576;47.792;9.628;2023-05-17T12:34:30;2.60;;;1.65;;
18887;SDS011;9576;47.792;9.628;2023-05-17T12:37:32;8.23;;;1.73;;
18887;SDS011;9576;47.792;9.628;2023-05-17T12:40:36;6.57;;;1.55;;
18887;SDS011;9576;47.792;9.628;2023-05-17T12:43:42;12.55;;;2.00;;
18887;SDS011;9576;47.792;9.628;2023-05-17T12:46:46;7.65;;;1.63;;
18887;SDS011;9576;47.792;9.628;2023-05-17T12:49:52;6.60;;;1.77;;
18887;SDS011;9576;47.792;9.628;2023-05-17T12:52:54;7.68;;;1.85;;
18887;SDS011;9576;47.792;9.628;2023-05-17T12:55:58;16.23;;;1.48;;
18887;SDS011;9576;47.792;9.628;2023-05-17T12:59:03;4.50;;;1.48;;
18887;SDS011;9576;47.792;9.628;2023-05-17T13:02:07;6.72;;;1.67;;
18887;SDS011;9576;47.792;9.628;2023-05-17T13:05:13;4.60;;;1.50;;
18887;SDS011;9576;47.792;9.628;2023-05-17T13:08:17;10.23;;;1.60;;
18887;SDS011;9576;47.792;9.628;2023-05-17T13:11:20;3.83;;;1.23;;
18887;SDS011;9576;47.792;9.628;2023-05-17T13:14:32;5.55;;;1.65;;
18887;SDS011;9576;47.792;9.628;2023-05-17T13:17:36;4.88;;;1.40;;
18887;SDS011;9576;47.792;9.628;2023-05-17T13:20:43;14.77;;;1.80;;
18887;SDS011;9576;47.792;9.628;2023-05-17T13:23:45;14.90;;;1.80;;
18887;SDS011;9576;47.792;9.628;2023-05-17T13:26:49;6.90;;;1.40;;
18887;SDS011;9576;47.792;9.628;2023-05-17T13:29:51;2.53;;;1.08;;
18887;SDS011;9576;47.792;9.628;2023-05-17T13:32:53;3.40;;;1.55;;
18887;SDS011;9576;47.792;9.628;2023-05-17T13:35:55;11.00;;;1.70;;
18887;SDS011;9576;47.792;9.628;2023-05-17T13:38:57;6.00;;;1.75;;
18887;SDS011;9576;47.792;9.628;2023-05-17T13:42:02;3.63;;;1.20;;
18887;SDS011;9576;47.792;9.628;2023-05-17T13:45:04;6.82;;;1.70;;
18887;SDS011;9576;47.792;9.628;2023-05-17T13:48:08;6.57;;;2.20;;
18887;SDS011;9576;47.792;9.628;2023-05-17T13:51:10;9.38;;;2.08;;
18887;SDS011;9576;47.792;9.628;2023-05-17T13:54:12;4.40;;;1.85;;
18887;SDS011;9576;47.792;9.628;2023-05-17T13:57:15;10.85;;;2.03;;
18887;SDS011;9576;47.792;9.628;2023-05-17T14:00:17;7.82;;;1.98;;
18887;SDS011;9576;47.792;9.628;2023-05-17T14:03:20;9.10;;;1.20;;
18887;SDS011;9576;47.792;9.628;2023-05-17T14:06:22;6.70;;;1.65;;
18887;SDS011;9576;47.792;9.628;2023-05-17T14:09:23;6.68;;;1.92;;
18887;SDS011;9576;47.792;9.628;2023-05-17T14:12:27;5.32;;;2.15;;
18887;SDS011;9576;47.792;9.628;2023-05-17T14:15:29;6.60;;;2.08;;
18887;SDS011;9576;47.792;9.628;2023-05-17T14:18:31;7.05;;;2.42;;
18887;SDS011;9576;47.792;9.628;2023-05-17T14:21:33;4.72;;;2.40;;
18887;SDS011;9576;47.792;9.628;2023-05-17T14:24:35;5.13;;;2.00;;
18887;SDS011;9576;47.792;9.628;2023-05-17T14:27:38;5.90;;;2.03;;
18887;SDS011;9576;47.792;9.628;2023-05-17T14:30:41;3.50;;;1.35;;
18887;SDS011;9576;47.792;9.628;2023-05-17T14:33:43;7.57;;;2.45;;
18887;SDS011;9576;47.792;9.628;2023-05-17T14:36:45;7.10;;;1.73;;
18887;SDS011;9576;47.792;9.628;2023-05-17T14:39:47;3.35;;;1.23;;
18887;SDS011;9576;47.792;9.628;2023-05-17T14:42:50;6.05;;;1.58;;
18887;SDS011;9576;47.792;9.628;2023-05-17T14:45:52;8.50;;;1.80;;
18887;SDS011;9576;47.792;9.628;2023-05-17T14:48:54;4.82;;;1.30;;
18887;SDS011;9576;47.792;9.628;2023-05-17T14:51:56;3.03;;;1.75;;
18887;SDS011;9576;47.792;9.628;2023-05-17T14:54:58;9.20;;;1.67;;
18887;SDS011;9576;47.792;9.628;2023-05-17T14:58:01;2.45;;;1.27;;
18887;SDS011;9576;47.792;9.628;2023-05-17T15:01:03;6.35;;;1.90;;
18887;SDS011;9576;47.792;9.628;2023-05-17T15:04:05;3.95;;;1.67;;
18887;SDS011;9576;47.792;9.628;2023-05-17T15:07:08;6.65;;;1.98;;
18887;SDS011;9576;47.792;9.628;2023-05-17T15:10:10;5.60;;;1.90;;
18887;SDS011;9576;47.792;9.628;2023-05-17T15:13:13;9.88;;;1.80;;
18887;SDS011;9576;47.792;9.628;2023-05-17T15:16:15;3.63;;;1.85;;
18887;SDS011;9576;47.792;9.628;2023-05-17T15:19:17;11.65;;;2.17;;
18887;SDS011;9576;47.792;9.628;2023-05-17T15:22:19;11.45;;;2.40;;
18887;SDS011;9576;47.792;9.628;2023-05-17T15:25:21;7.78;;;2.50;;
18887;SDS011;9576;47.792;9.628;2023-05-17T15:28:25;5.50;;;2.05;;
18887;SDS011;9576;47.792;9.628;2023-05-17T15:31:27;11.65;;;2.25;;
18887;SDS011;9576;47.792;9.628;2023-05-17T15:34:29;5.72;;;2.10;;
18887;SDS011;9576;47.792;9.628;2023-05-17T15:37:31;3.90;;;1.60;;
18887;SDS011;9576;47.792;9.628;2023-05-17T15:40:33;8.70;;;3.03;;
18887;SDS011;9576;47.792;9.628;2023-05-17T15:43:36;5.53;;;1.63;;
18887;SDS011;9576;47.792;9.628;2023-05-17T15:46:38;8.55;;;1.83;;
18887;SDS011;9576;47.792;9.628;2023-05-17T15:49:40;7.25;;;2.60;;
18887;SDS011;9576;47.792;9.628;2023-05-17T15:52:42;4.47;;;1.90;;
18887;SDS011;9576;47.792;9.628;2023-05-17T15:55:46;10.30;;;1.90;;
18887;SDS011;9576;47.792;9.628;2023-05-17T15:58:51;6.43;;;2.15;;
18887;SDS011;9576;47.792;9.628;2023-05-17T16:01:53;4.28;;;2.40;;
18887;SDS011;9576;47.792;9.628;2023-05-17T16:04:55;3.80;;;1.95;;
18887;SDS011;9576;47.792;9.628;2023-05-17T16:07:56;5.60;;;2.42;;
18887;SDS011;9576;47.792;9.628;2023-05-17T16:10:58;5.43;;;1.98;;
18887;SDS011;9576;47.792;9.628;2023-05-17T16:14:02;4.70;;;2.30;;
18887;SDS011;9576;47.792;9.628;2023-05-17T16:17:04;5.10;;;2.28;;
18887;SDS011;9576;47.792;9.628;2023-05-17T16:20:06;6.85;;;2.42;;
18887;SDS011;9576;47.792;9.628;2023-05-17T16:23:09;3.53;;;1.92;;
18887;SDS011;9576;47.792;9.628;2023-05-17T16:26:11;10.02;;;2.38;;
18887;SDS011;9576;47.792;9.628;2023-05-17T16:29:14;8.93;;;2.33;;
18887;SDS011;9576;47.792;9.628;2023-05-17T16:32:17;3.70;;;2.13;;
18887;SDS011;9576;47.792;9.628;2023-05-17T16:35:19;11.15;;;2.13;;
18887;SDS011;9576;47.792;9.628;2023-05-17T16:38:21;3.92;;;2.03;;
18887;SDS011;9576;47.792;9.628;2023-05-17T16:41:24;9.27;;;2.70;;
18887;SDS011;9576;47.792;9.628;2023-05-17T16:44:27;13.90;;;2.38;;
18887;SDS011;9576;47.792;9.628;2023-05-17T16:47:29;16.33;;;2.38;;
18887;SDS011;9576;47.792;9.628;2023-05-17T16:50:31;5.88;;;2.08;;
18887;SDS011;9576;47.792;9.628;2023-05-17T16:53:33;33.10;;;3.72;;
18887;SDS011;9576;47.792;9.628;2023-05-17T16:56:35;10.98;;;2.65;;
18887;SDS011;9576;47.792;9.628;2023-05-17T16:59:38;13.13;;;3.25;;
18887;SDS011;9576;47.792;9.628;2023-05-17T17:02:40;7.22;;;2.75;;
18887;SDS011;9576;47.792;9.628;2023-05-17T17:05:42;7.38;;;2.95;;
18887;SDS011;9576;47.792;9.628;2023-05-17T17:08:44;10.27;;;2.90;;
18887;SDS011;9576;47.792;9.628;2023-05-17T17:11:46;7.03;;;2.28;;
18887;SDS011;9576;47.792;9.628;2023-05-17T17:14:49;4.07;;;2.30;;
18887;SDS011;9576;47.792;9.628;2023-05-17T17:17:51;7.35;;;2.88;;
18887;SDS011;9576;47.792;9.628;2023-05-17T17:20:53;4.55;;;2.33;;
18887;SDS011;9576;47.792;9.628;2023-05-17T17:23:56;6.75;;;2.60;;
18887;SDS011;9576;47.792;9.628;2023-05-17T17:26:58;9.05;;;2.75;;
18887;SDS011;9576;47.792;9.628;2023-05-17T17:30:01;9.48;;;3.58;;
18887;SDS011;9576;47.792;9.628;2023-05-17T17:33:03;12.32;;;3.65;;
18887;SDS011;9576;47.792;9.628;2023-05-17T17:36:06;11.27;;;2.97;;
18887;SDS011;9576;47.792;9.628;2023-05-17T17:39:10;14.82;;;3.17;;
18887;SDS011;9576;47.792;9.628;2023-05-17T17:42:13;7.88;;;4.00;;
18887;SDS011;9576;47.792;9.628;2023-05-17T17:45:16;9.68;;;3.60;;
18887;SDS011;9576;47.792;9.628;2023-05-17T17:48:18;18.17;;;3.92;;
18887;SDS011;9576;47.792;9.628;2023-05-17T17:51:20;13.32;;;6.35;;
18887;SDS011;9576;47.792;9.628;2023-05-17T17:54:22;10.18;;;3.65;;
18887;SDS011;9576;47.792;9.628;2023-05-17T17:57:24;14.93;;;5.47;;
18887;SDS011;9576;47.792;9.628;2023-05-17T18:00:27;11.68;;;4.53;;
18887;SDS011;9576;47.792;9.628;2023-05-17T18:03:29;12.40;;;3.95;;
18887;SDS011;9576;47.792;9.628;2023-05-17T18:06:31;10.40;;;3.80;;
18887;SDS011;9576;47.792;9.628;2023-05-17T18:09:33;9.75;;;4.00;;
18887;SDS011;9576;47.792;9.628;2023-05-17T18:12:35;14.35;;;4.22;;
18887;SDS011;9576;47.792;9.628;2023-05-17T18:15:38;34.47;;;8.43;;
18887;SDS011;9576;47.792;9.628;2023-05-17T18:18:40;23.48;;;7.68;;
18887;SDS011;9576;47.792;9.628;2023-05-17T18:21:43;10.57;;;4.47;;
18887;SDS011;9576;47.792;9.628;2023-05-17T18:24:45;7.38;;;4.00;;
18887;SDS011;9576;47.792;9.628;2023-05-17T18:27:47;8.95;;;4.35;;
18887;SDS011;9576;47.792;9.628;2023-05-17T18:30:50;9.55;;;3.28;;
18887;SDS011;9576;47.792;9.628;2023-05-17T18:33:52;12.57;;;4.00;;
18887;SDS011;9576;47.792;9.628;2023-05-17T18:36:54;13.18;;;4.15;;
18887;SDS011;9576;47.792;9.628;2023-05-17T18:39:56;10.02;;;3.50;;
18887;SDS011;9576;47.792;9.628;2023-05-17T18:43:00;12.27;;;4.38;;
18887;SDS011;9576;47.792;9.628;2023-05-17T18:46:04;14.73;;;4.15;;